sensor_id;sensor_type;location;lat;lon;timestamp;P1;durP1;ratioP1;P2;durP2;ratioP2
15287;SDS011;7745;48.708;9.026;2023-02-26T00:01:34;3.63;;;2.33;;
15287;SDS011;7745;48.708;9.026;2023-02-26T00:04:03;4.30;;;2.27;;
15287;SDS011;7745;48.708;9.026;2023-02-26T00:06:31;3.10;;;2.40;;
15287;SDS011;7745;48.708;9.026;2023-02-26T00:08:59;4.53;;;2.40;;
15287;SDS011;7745;48.708;9.026;2023-02-26T00:11:27;7.10;;;2.27;;
15287;SDS011;7745;48.708;9.026;2023-02-26T00:13:54;5.00;;;2.40;;
15287;SDS011;7745;48.708;9.026;2023-02-26T00:16:25;4.10;;;2.47;;
15287;SDS011;7745;48.708;9.026;2023-02-26T00:18:53;3.73;;;2.40;;
15287;SDS011;7745;48.708;9.026;2023-02-26T00:21:21;2.80;;;2.20;;
15287;SDS011;7745;48.708;9.026;2023-02-26T00:23:50;5.00;;;2.33;;
15287;SDS011;7745;48.708;9.026;2023-02-26T00:26:17;4.13;;;2.47;;
15287;SDS011;7745;48.708;9.026;2023-02-26T00:28:46;4.27;;;2.70;;
15287;SDS011;7745;48.708;9.026;2023-02-26T00:31:14;3.30;;;2.23;;
15287;SDS011;7745;48.708;9.026;2023-02-26T00:33:45;3.97;;;2.20;;
15287;SDS011;7745;48.708;9.026;2023-02-26T00:36:15;7.87;;;2.37;;
15287;SDS011;7745;48.708;9.026;2023-02-26T00:38:49;3.60;;;2.30;;
15287;SDS011;7745;48.708;9.026;2023-02-26T00:41:27;3.40;;;2.30;;
15287;SDS011;7745;48.708;9.026;2023-02-26T00:43:55;3.40;;;2.23;;
15287;SDS011;7745;48.708;9.026;2023-02-26T00:46:25;3.17;;;2.30;;
15287;SDS011;7745;48.708;9.026;2023-02-26T00:48:59;3.77;;;2.53;;
15287;SDS011;7745;48.708;9.026;2023-02-26T00:51:31;3.40;;;1.97;;
15287;SDS011;7745;48.708;9.026;2023-02-26T00:54:07;4.10;;;2.50;;
15287;SDS011;7745;48.708;9.026;2023-02-26T00:56:37;3.53;;;2.07;;
15287;SDS011;7745;48.708;9.026;2023-02-26T00:59:06;2.70;;;1.80;;
15287;SDS011;7745;48.708;9.026;2023-02-26T01:01:32;4.67;;;2.30;;
15287;SDS011;7745;48.708;9.026;2023-02-26T01:03:59;3.57;;;2.37;;
15287;SDS011;7745;48.708;9.026;2023-02-26T01:06:27;3.60;;;2.20;;
15287;SDS011;7745;48.708;9.026;2023-02-26T01:09:00;3.13;;;2.33;;
15287;SDS011;7745;48.708;9.026;2023-02-26T01:11:34;4.73;;;2.20;;
15287;SDS011;7745;48.708;9.026;2023-02-26T01:14:02;3.33;;;2.27;;
15287;SDS011;7745;48.708;9.026;2023-02-26T01:16:32;6.73;;;2.20;;
15287;SDS011;7745;48.708;9.026;2023-02-26T01:19:04;2.10;;;1.90;;
15287;SDS011;7745;48.708;9.026;2023-02-26T01:21:40;6.10;;;2.13;;
15287;SDS011;7745;48.708;9.026;2023-02-26T01:24:14;4.40;;;2.27;;
15287;SDS011;7745;48.708;9.026;2023-02-26T01:26:43;2.90;;;1.87;;
15287;SDS011;7745;48.708;9.026;2023-02-26T01:29:11;4.27;;;2.00;;
15287;SDS011;7745;48.708;9.026;2023-02-26T01:31:41;4.17;;;1.90;;
15287;SDS011;7745;48.708;9.026;2023-02-26T01:34:16;3.93;;;2.47;;
15287;SDS011;7745;48.708;9.026;2023-02-26T01:36:48;5.07;;;2.47;;
15287;SDS011;7745;48.708;9.026;2023-02-26T01:39:22;3.63;;;2.20;;
15287;SDS011;7745;48.708;9.026;2023-02-26T01:41:54;6.10;;;2.07;;
15287;SDS011;7745;48.708;9.026;2023-02-26T01:44:24;4.53;;;2.30;;
15287;SDS011;7745;48.708;9.026;2023-02-26T01:47:02;6.17;;;2.43;;
15287;SDS011;7745;48.708;9.026;2023-02-26T01:49:36;3.93;;;2.00;;
15287;SDS011;7745;48.708;9.026;2023-02-26T01:52:04;6.20;;;2.37;;
15287;SDS011;7745;48.708;9.026;2023-02-26T01:54:33;3.13;;;2.27;;
15287;SDS011;7745;48.708;9.026;2023-02-26T01:57:03;2.97;;;1.90;;
15287;SDS011;7745;48.708;9.026;2023-02-26T01:59:33;3.60;;;2.00;;
15287;SDS011;7745;48.708;9.026;2023-02-26T02:02:04;2.20;;;1.87;;
15287;SDS011;7745;48.708;9.026;2023-02-26T02:04:33;3.07;;;1.90;;
15287;SDS011;7745;48.708;9.026;2023-02-26T02:07:00;4.40;;;2.17;;
15287;SDS011;7745;48.708;9.026;2023-02-26T02:09:27;4.97;;;2.30;;
15287;SDS011;7745;48.708;9.026;2023-02-26T02:12:00;2.90;;;1.67;;
15287;SDS011;7745;48.708;9.026;2023-02-26T02:14:39;6.03;;;2.13;;
15287;SDS011;7745;48.708;9.026;2023-02-26T02:17:13;2.77;;;2.20;;
15287;SDS011;7745;48.708;9.026;2023-02-26T02:19:53;4.57;;;2.13;;
15287;SDS011;7745;48.708;9.026;2023-02-26T02:22:46;3.63;;;2.10;;
15287;SDS011;7745;48.708;9.026;2023-02-26T02:25:37;3.47;;;2.30;;
15287;SDS011;7745;48.708;9.026;2023-02-26T02:28:26;2.47;;;2.07;;
15287;SDS011;7745;48.708;9.026;2023-02-26T02:31:05;2.80;;;2.10;;
15287;SDS011;7745;48.708;9.026;2023-02-26T02:33:36;2.10;;;1.80;;
15287;SDS011;7745;48.708;9.026;2023-02-26T02:36:10;4.57;;;2.20;;
15287;SDS011;7745;48.708;9.026;2023-02-26T02:38:43;5.33;;;2.00;;
15287;SDS011;7745;48.708;9.026;2023-02-26T02:41:14;3.20;;;2.13;;
15287;SDS011;7745;48.708;9.026;2023-02-26T02:43:44;5.63;;;2.30;;
15287;SDS011;7745;48.708;9.026;2023-02-26T02:46:16;6.70;;;2.10;;
15287;SDS011;7745;48.708;9.026;2023-02-26T02:48:46;3.37;;;2.50;;
15287;SDS011;7745;48.708;9.026;2023-02-26T02:51:18;4.67;;;2.23;;
15287;SDS011;7745;48.708;9.026;2023-02-26T02:53:49;6.27;;;2.40;;
15287;SDS011;7745;48.708;9.026;2023-02-26T02:56:18;4.67;;;2.17;;
15287;SDS011;7745;48.708;9.026;2023-02-26T02:58:50;6.53;;;2.20;;
15287;SDS011;7745;48.708;9.026;2023-02-26T03:01:20;2.77;;;2.10;;
15287;SDS011;7745;48.708;9.026;2023-02-26T03:03:51;9.03;;;2.50;;
15287;SDS011;7745;48.708;9.026;2023-02-26T03:06:23;4.00;;;2.10;;
15287;SDS011;7745;48.708;9.026;2023-02-26T03:08:49;4.57;;;2.17;;
15287;SDS011;7745;48.708;9.026;2023-02-26T03:11:18;3.93;;;2.20;;
15287;SDS011;7745;48.708;9.026;2023-02-26T03:13:45;4.37;;;2.53;;
15287;SDS011;7745;48.708;9.026;2023-02-26T03:16:18;3.67;;;2.27;;
15287;SDS011;7745;48.708;9.026;2023-02-26T03:19:07;5.90;;;2.20;;
15287;SDS011;7745;48.708;9.026;2023-02-26T03:21:42;3.93;;;2.00;;
15287;SDS011;7745;48.708;9.026;2023-02-26T03:24:15;2.40;;;2.00;;
15287;SDS011;7745;48.708;9.026;2023-02-26T03:26:50;3.90;;;2.07;;
15287;SDS011;7745;48.708;9.026;2023-02-26T03:29:24;4.03;;;2.37;;
15287;SDS011;7745;48.708;9.026;2023-02-26T03:31:58;3.07;;;2.03;;
15287;SDS011;7745;48.708;9.026;2023-02-26T03:34:31;4.93;;;2.07;;
15287;SDS011;7745;48.708;9.026;2023-02-26T03:37:03;5.33;;;2.40;;
15287;SDS011;7745;48.708;9.026;2023-02-26T03:39:33;4.40;;;2.40;;
15287;SDS011;7745;48.708;9.026;2023-02-26T03:42:04;6.47;;;2.33;;
15287;SDS011;7745;48.708;9.026;2023-02-26T03:44:35;5.53;;;2.20;;
15287;SDS011;7745;48.708;9.026;2023-02-26T03:47:06;3.47;;;2.13;;
15287;SDS011;7745;48.708;9.026;2023-02-26T03:49:39;3.07;;;2.23;;
15287;SDS011;7745;48.708;9.026;2023-02-26T03:52:09;4.40;;;2.57;;
15287;SDS011;7745;48.708;9.026;2023-02-26T03:54:38;4.60;;;2.57;;
15287;SDS011;7745;48.708;9.026;2023-02-26T03:57:07;5.50;;;2.20;;
15287;SDS011;7745;48.708;9.026;2023-02-26T03:59:34;3.47;;;2.40;;
15287;SDS011;7745;48.708;9.026;2023-02-26T04:02:02;4.97;;;2.33;;
15287;SDS011;7745;48.708;9.026;2023-02-26T04:04:36;4.87;;;2.50;;
15287;SDS011;7745;48.708;9.026;2023-02-26T04:07:09;4.80;;;2.40;;
15287;SDS011;7745;48.708;9.026;2023-02-26T04:09:37;4.83;;;2.57;;
15287;SDS011;7745;48.708;9.026;2023-02-26T04:12:06;5.17;;;2.57;;
15287;SDS011;7745;48.708;9.026;2023-02-26T04:14:33;4.00;;;2.37;;
15287;SDS011;7745;48.708;9.026;2023-02-26T04:16:59;6.87;;;2.30;;
15287;SDS011;7745;48.708;9.026;2023-02-26T04:19:26;2.97;;;2.20;;
15287;SDS011;7745;48.708;9.026;2023-02-26T04:21:54;4.43;;;2.10;;
15287;SDS011;7745;48.708;9.026;2023-02-26T04:24:21;4.17;;;2.07;;
15287;SDS011;7745;48.708;9.026;2023-02-26T04:26:48;6.40;;;2.43;;
15287;SDS011;7745;48.708;9.026;2023-02-26T04:29:15;6.43;;;2.40;;
15287;SDS011;7745;48.708;9.026;2023-02-26T04:31:42;3.33;;;2.50;;
15287;SDS011;7745;48.708;9.026;2023-02-26T04:34:09;4.47;;;2.53;;
15287;SDS011;7745;48.708;9.026;2023-02-26T04:36:35;8.00;;;2.30;;
15287;SDS011;7745;48.708;9.026;2023-02-26T04:39:04;4.90;;;2.30;;
15287;SDS011;7745;48.708;9.026;2023-02-26T04:41:30;5.10;;;2.57;;
15287;SDS011;7745;48.708;9.026;2023-02-26T04:43:58;4.53;;;2.33;;
15287;SDS011;7745;48.708;9.026;2023-02-26T04:46:24;4.93;;;2.67;;
15287;SDS011;7745;48.708;9.026;2023-02-26T04:48:51;5.50;;;2.50;;
15287;SDS011;7745;48.708;9.026;2023-02-26T04:51:18;4.23;;;2.50;;
15287;SDS011;7745;48.708;9.026;2023-02-26T04:53:45;4.10;;;2.53;;
15287;SDS011;7745;48.708;9.026;2023-02-26T04:56:14;3.87;;;2.13;;
15287;SDS011;7745;48.708;9.026;2023-02-26T04:58:41;6.40;;;2.70;;
15287;SDS011;7745;48.708;9.026;2023-02-26T05:01:08;4.87;;;2.50;;
15287;SDS011;7745;48.708;9.026;2023-02-26T05:03:35;5.93;;;2.40;;
15287;SDS011;7745;48.708;9.026;2023-02-26T05:06:02;3.87;;;2.40;;
15287;SDS011;7745;48.708;9.026;2023-02-26T05:08:29;4.13;;;2.40;;
15287;SDS011;7745;48.708;9.026;2023-02-26T05:10:55;3.17;;;2.17;;
15287;SDS011;7745;48.708;9.026;2023-02-26T05:13:23;4.30;;;2.43;;
15287;SDS011;7745;48.708;9.026;2023-02-26T05:15:51;4.57;;;2.63;;
15287;SDS011;7745;48.708;9.026;2023-02-26T05:18:19;4.30;;;2.53;;
15287;SDS011;7745;48.708;9.026;2023-02-26T05:20:50;5.23;;;2.67;;
15287;SDS011;7745;48.708;9.026;2023-02-26T05:23:17;4.67;;;2.47;;
15287;SDS011;7745;48.708;9.026;2023-02-26T05:25:44;4.93;;;2.20;;
15287;SDS011;7745;48.708;9.026;2023-02-26T05:28:11;3.43;;;2.50;;
15287;SDS011;7745;48.708;9.026;2023-02-26T05:30:40;5.20;;;2.60;;
15287;SDS011;7745;48.708;9.026;2023-02-26T05:33:07;5.67;;;2.50;;
15287;SDS011;7745;48.708;9.026;2023-02-26T05:35:34;4.40;;;2.10;;
15287;SDS011;7745;48.708;9.026;2023-02-26T05:38:01;5.47;;;2.80;;
15287;SDS011;7745;48.708;9.026;2023-02-26T05:40:28;5.13;;;2.67;;
15287;SDS011;7745;48.708;9.026;2023-02-26T05:42:55;5.90;;;2.87;;
15287;SDS011;7745;48.708;9.026;2023-02-26T05:45:21;8.00;;;2.90;;
15287;SDS011;7745;48.708;9.026;2023-02-26T05:47:49;5.07;;;2.53;;
15287;SDS011;7745;48.708;9.026;2023-02-26T05:50:16;7.77;;;2.60;;
15287;SDS011;7745;48.708;9.026;2023-02-26T05:52:43;5.67;;;2.60;;
15287;SDS011;7745;48.708;9.026;2023-02-26T05:55:10;6.07;;;2.47;;
15287;SDS011;7745;48.708;9.026;2023-02-26T05:57:37;5.20;;;2.23;;
15287;SDS011;7745;48.708;9.026;2023-02-26T06:00:05;4.27;;;2.50;;
15287;SDS011;7745;48.708;9.026;2023-02-26T06:02:33;6.53;;;2.57;;
15287;SDS011;7745;48.708;9.026;2023-02-26T06:05:01;7.10;;;2.40;;
15287;SDS011;7745;48.708;9.026;2023-02-26T06:07:28;5.87;;;2.33;;
15287;SDS011;7745;48.708;9.026;2023-02-26T06:09:55;8.67;;;2.70;;
15287;SDS011;7745;48.708;9.026;2023-02-26T06:12:22;6.00;;;2.70;;
15287;SDS011;7745;48.708;9.026;2023-02-26T06:14:49;4.87;;;2.67;;
15287;SDS011;7745;48.708;9.026;2023-02-26T06:17:16;6.70;;;2.90;;
15287;SDS011;7745;48.708;9.026;2023-02-26T06:19:43;5.57;;;2.57;;
15287;SDS011;7745;48.708;9.026;2023-02-26T06:22:11;3.67;;;2.60;;
15287;SDS011;7745;48.708;9.026;2023-02-26T06:24:37;5.47;;;3.00;;
15287;SDS011;7745;48.708;9.026;2023-02-26T06:27:04;6.70;;;3.10;;
15287;SDS011;7745;48.708;9.026;2023-02-26T06:29:32;5.77;;;3.10;;
15287;SDS011;7745;48.708;9.026;2023-02-26T06:31:59;4.07;;;2.77;;
15287;SDS011;7745;48.708;9.026;2023-02-26T06:34:25;7.37;;;2.90;;
15287;SDS011;7745;48.708;9.026;2023-02-26T06:36:52;6.50;;;2.80;;
15287;SDS011;7745;48.708;9.026;2023-02-26T06:39:20;5.40;;;3.13;;
15287;SDS011;7745;48.708;9.026;2023-02-26T06:41:47;11.10;;;3.50;;
15287;SDS011;7745;48.708;9.026;2023-02-26T06:44:14;6.13;;;3.50;;
15287;SDS011;7745;48.708;9.026;2023-02-26T06:46:41;6.30;;;3.00;;
15287;SDS011;7745;48.708;9.026;2023-02-26T06:49:08;8.33;;;3.17;;
15287;SDS011;7745;48.708;9.026;2023-02-26T06:51:34;4.50;;;2.80;;
15287;SDS011;7745;48.708;9.026;2023-02-26T06:54:01;5.33;;;2.90;;
15287;SDS011;7745;48.708;9.026;2023-02-26T06:56:30;6.53;;;2.77;;
15287;SDS011;7745;48.708;9.026;2023-02-26T06:58:57;7.80;;;3.40;;
15287;SDS011;7745;48.708;9.026;2023-02-26T07:01:24;6.20;;;3.93;;
15287;SDS011;7745;48.708;9.026;2023-02-26T07:03:51;6.20;;;3.30;;
15287;SDS011;7745;48.708;9.026;2023-02-26T07:06:18;6.90;;;3.03;;
15287;SDS011;7745;48.708;9.026;2023-02-26T07:08:44;6.47;;;2.50;;
15287;SDS011;7745;48.708;9.026;2023-02-26T07:11:11;4.37;;;3.07;;
15287;SDS011;7745;48.708;9.026;2023-02-26T07:13:40;4.30;;;2.90;;
15287;SDS011;7745;48.708;9.026;2023-02-26T07:16:06;6.20;;;2.70;;
15287;SDS011;7745;48.708;9.026;2023-02-26T07:18:33;5.37;;;3.00;;
15287;SDS011;7745;48.708;9.026;2023-02-26T07:21:01;4.67;;;3.00;;
15287;SDS011;7745;48.708;9.026;2023-02-26T07:23:28;3.83;;;2.90;;
15287;SDS011;7745;48.708;9.026;2023-02-26T07:25:55;3.60;;;2.50;;
15287;SDS011;7745;48.708;9.026;2023-02-26T07:28:22;3.87;;;2.37;;
15287;SDS011;7745;48.708;9.026;2023-02-26T07:30:52;3.63;;;2.63;;
15287;SDS011;7745;48.708;9.026;2023-02-26T07:33:19;5.63;;;3.10;;
15287;SDS011;7745;48.708;9.026;2023-02-26T07:35:46;4.93;;;2.50;;
15287;SDS011;7745;48.708;9.026;2023-02-26T07:38:13;6.53;;;2.73;;
15287;SDS011;7745;48.708;9.026;2023-02-26T07:40:40;7.77;;;2.83;;
15287;SDS011;7745;48.708;9.026;2023-02-26T07:43:07;6.33;;;2.67;;
15287;SDS011;7745;48.708;9.026;2023-02-26T07:45:34;5.83;;;2.90;;
15287;SDS011;7745;48.708;9.026;2023-02-26T07:48:02;3.90;;;2.60;;
15287;SDS011;7745;48.708;9.026;2023-02-26T07:50:29;3.83;;;2.40;;
15287;SDS011;7745;48.708;9.026;2023-02-26T07:52:57;8.87;;;2.10;;
15287;SDS011;7745;48.708;9.026;2023-02-26T07:55:24;5.80;;;2.37;;
15287;SDS011;7745;48.708;9.026;2023-02-26T07:57:51;7.23;;;2.57;;
15287;SDS011;7745;48.708;9.026;2023-02-26T08:00:18;4.70;;;2.30;;
15287;SDS011;7745;48.708;9.026;2023-02-26T08:02:45;5.07;;;2.67;;
15287;SDS011;7745;48.708;9.026;2023-02-26T08:05:14;4.77;;;2.20;;
15287;SDS011;7745;48.708;9.026;2023-02-26T08:07:40;3.07;;;1.87;;
15287;SDS011;7745;48.708;9.026;2023-02-26T08:10:08;3.97;;;2.47;;
15287;SDS011;7745;48.708;9.026;2023-02-26T08:12:35;3.40;;;2.27;;
15287;SDS011;7745;48.708;9.026;2023-02-26T08:15:02;5.50;;;2.30;;
15287;SDS011;7745;48.708;9.026;2023-02-26T08:17:30;3.43;;;2.07;;
15287;SDS011;7745;48.708;9.026;2023-02-26T08:19:58;8.20;;;2.50;;
15287;SDS011;7745;48.708;9.026;2023-02-26T08:22:26;3.63;;;2.20;;
15287;SDS011;7745;48.708;9.026;2023-02-26T08:24:52;6.20;;;2.40;;
15287;SDS011;7745;48.708;9.026;2023-02-26T08:27:19;3.87;;;2.07;;
15287;SDS011;7745;48.708;9.026;2023-02-26T08:29:46;4.93;;;2.07;;
15287;SDS011;7745;48.708;9.026;2023-02-26T08:32:14;5.63;;;2.50;;
15287;SDS011;7745;48.708;9.026;2023-02-26T08:34:41;6.10;;;2.77;;
15287;SDS011;7745;48.708;9.026;2023-02-26T08:37:08;5.50;;;3.17;;
15287;SDS011;7745;48.708;9.026;2023-02-26T08:39:37;7.53;;;3.73;;
15287;SDS011;7745;48.708;9.026;2023-02-26T08:42:04;4.00;;;2.37;;
15287;SDS011;7745;48.708;9.026;2023-02-26T08:44:32;6.83;;;3.40;;
15287;SDS011;7745;48.708;9.026;2023-02-26T08:46:59;4.50;;;2.50;;
15287;SDS011;7745;48.708;9.026;2023-02-26T08:49:27;4.73;;;2.10;;
15287;SDS011;7745;48.708;9.026;2023-02-26T08:51:54;6.13;;;2.57;;
15287;SDS011;7745;48.708;9.026;2023-02-26T08:54:21;4.23;;;2.30;;
15287;SDS011;7745;48.708;9.026;2023-02-26T08:56:49;3.90;;;2.20;;
15287;SDS011;7745;48.708;9.026;2023-02-26T08:59:17;4.20;;;2.10;;
15287;SDS011;7745;48.708;9.026;2023-02-26T09:01:44;6.77;;;2.20;;
15287;SDS011;7745;48.708;9.026;2023-02-26T09:04:11;3.33;;;1.90;;
15287;SDS011;7745;48.708;9.026;2023-02-26T09:06:37;3.73;;;2.20;;
15287;SDS011;7745;48.708;9.026;2023-02-26T09:09:04;4.67;;;2.00;;
15287;SDS011;7745;48.708;9.026;2023-02-26T09:11:31;3.87;;;2.07;;
15287;SDS011;7745;48.708;9.026;2023-02-26T09:13:59;4.60;;;2.27;;
15287;SDS011;7745;48.708;9.026;2023-02-26T09:16:27;3.70;;;2.20;;
15287;SDS011;7745;48.708;9.026;2023-02-26T09:18:54;4.97;;;2.20;;
15287;SDS011;7745;48.708;9.026;2023-02-26T09:21:21;2.77;;;1.93;;
15287;SDS011;7745;48.708;9.026;2023-02-26T09:23:48;3.73;;;1.80;;
15287;SDS011;7745;48.708;9.026;2023-02-26T09:26:15;3.83;;;1.90;;
15287;SDS011;7745;48.708;9.026;2023-02-26T09:28:42;1.77;;;1.67;;
15287;SDS011;7745;48.708;9.026;2023-02-26T09:31:10;4.53;;;1.90;;
15287;SDS011;7745;48.708;9.026;2023-02-26T09:33:37;2.93;;;1.93;;
15287;SDS011;7745;48.708;9.026;2023-02-26T09:36:04;2.53;;;1.50;;
15287;SDS011;7745;48.708;9.026;2023-02-26T09:38:31;7.13;;;2.63;;
15287;SDS011;7745;48.708;9.026;2023-02-26T09:41:00;3.03;;;1.80;;
15287;SDS011;7745;48.708;9.026;2023-02-26T09:43:43;5.93;;;2.90;;
15287;SDS011;7745;48.708;9.026;2023-02-26T09:46:25;2.40;;;1.80;;
15287;SDS011;7745;48.708;9.026;2023-02-26T09:49:21;4.77;;;2.27;;
15287;SDS011;7745;48.708;9.026;2023-02-26T09:52:09;3.23;;;1.73;;
15287;SDS011;7745;48.708;9.026;2023-02-26T09:55:25;2.80;;;1.60;;
15287;SDS011;7745;48.708;9.026;2023-02-26T09:57:55;2.77;;;1.90;;
15287;SDS011;7745;48.708;9.026;2023-02-26T10:00:31;3.60;;;1.77;;
15287;SDS011;7745;48.708;9.026;2023-02-26T10:06:11;4.03;;;2.33;;
15287;SDS011;7745;48.708;9.026;2023-02-26T10:08:46;3.10;;;1.87;;
15287;SDS011;7745;48.708;9.026;2023-02-26T10:11:21;2.27;;;2.00;;
15287;SDS011;7745;48.708;9.026;2023-02-26T10:13:54;3.00;;;1.90;;
15287;SDS011;7745;48.708;9.026;2023-02-26T10:16:25;2.93;;;2.00;;
15287;SDS011;7745;48.708;9.026;2023-02-26T10:18:57;3.33;;;1.87;;
15287;SDS011;7745;48.708;9.026;2023-02-26T10:21:29;4.50;;;1.90;;
15287;SDS011;7745;48.708;9.026;2023-02-26T10:24:02;2.17;;;1.80;;
15287;SDS011;7745;48.708;9.026;2023-02-26T10:26:34;4.17;;;2.17;;
15287;SDS011;7745;48.708;9.026;2023-02-26T10:29:05;3.07;;;1.80;;
15287;SDS011;7745;48.708;9.026;2023-02-26T10:31:42;3.43;;;2.20;;
15287;SDS011;7745;48.708;9.026;2023-02-26T10:34:23;4.90;;;1.83;;
15287;SDS011;7745;48.708;9.026;2023-02-26T10:36:56;2.20;;;1.83;;
15287;SDS011;7745;48.708;9.026;2023-02-26T10:39:34;3.40;;;2.00;;
15287;SDS011;7745;48.708;9.026;2023-02-26T10:42:09;3.43;;;2.07;;
15287;SDS011;7745;48.708;9.026;2023-02-26T10:44:42;3.80;;;1.97;;
15287;SDS011;7745;48.708;9.026;2023-02-26T10:47:14;4.90;;;1.93;;
15287;SDS011;7745;48.708;9.026;2023-02-26T10:49:53;5.40;;;2.10;;
15287;SDS011;7745;48.708;9.026;2023-02-26T10:52:23;3.07;;;2.17;;
15287;SDS011;7745;48.708;9.026;2023-02-26T10:55:01;5.97;;;2.70;;
15287;SDS011;7745;48.708;9.026;2023-02-26T10:57:41;2.73;;;2.20;;
15287;SDS011;7745;48.708;9.026;2023-02-26T11:00:14;3.97;;;2.80;;
15287;SDS011;7745;48.708;9.026;2023-02-26T11:02:45;3.57;;;1.97;;
15287;SDS011;7745;48.708;9.026;2023-02-26T11:05:17;3.70;;;2.37;;
15287;SDS011;7745;48.708;9.026;2023-02-26T11:07:49;4.20;;;2.23;;
15287;SDS011;7745;48.708;9.026;2023-02-26T11:10:19;2.93;;;2.10;;
15287;SDS011;7745;48.708;9.026;2023-02-26T11:12:49;3.67;;;1.80;;
15287;SDS011;7745;48.708;9.026;2023-02-26T11:15:17;3.07;;;1.90;;
15287;SDS011;7745;48.708;9.026;2023-02-26T11:17:47;3.70;;;2.00;;
15287;SDS011;7745;48.708;9.026;2023-02-26T11:20:25;3.33;;;2.13;;
15287;SDS011;7745;48.708;9.026;2023-02-26T11:22:57;2.77;;;2.20;;
15287;SDS011;7745;48.708;9.026;2023-02-26T11:25:27;2.90;;;1.93;;
15287;SDS011;7745;48.708;9.026;2023-02-26T11:27:57;2.90;;;1.77;;
15287;SDS011;7745;48.708;9.026;2023-02-26T11:30:28;3.13;;;2.40;;
15287;SDS011;7745;48.708;9.026;2023-02-26T11:32:58;2.20;;;2.00;;
15287;SDS011;7745;48.708;9.026;2023-02-26T11:35:33;3.27;;;2.10;;
15287;SDS011;7745;48.708;9.026;2023-02-26T11:38:01;2.87;;;1.60;;
15287;SDS011;7745;48.708;9.026;2023-02-26T11:40:31;2.23;;;1.80;;
15287;SDS011;7745;48.708;9.026;2023-02-26T11:43:02;3.90;;;2.03;;
15287;SDS011;7745;48.708;9.026;2023-02-26T11:45:32;3.87;;;1.80;;
15287;SDS011;7745;48.708;9.026;2023-02-26T11:48:03;3.07;;;1.90;;
15287;SDS011;7745;48.708;9.026;2023-02-26T11:50:32;1.80;;;1.70;;
15287;SDS011;7745;48.708;9.026;2023-02-26T11:53:06;2.80;;;1.70;;
15287;SDS011;7745;48.708;9.026;2023-02-26T11:55:42;2.13;;;1.70;;
15287;SDS011;7745;48.708;9.026;2023-02-26T11:58:15;1.97;;;1.70;;
15287;SDS011;7745;48.708;9.026;2023-02-26T12:00:44;3.40;;;1.77;;
15287;SDS011;7745;48.708;9.026;2023-02-26T12:03:14;4.00;;;2.13;;
15287;SDS011;7745;48.708;9.026;2023-02-26T12:05:44;5.23;;;2.27;;
15287;SDS011;7745;48.708;9.026;2023-02-26T12:08:14;1.43;;;1.33;;
15287;SDS011;7745;48.708;9.026;2023-02-26T12:10:47;3.27;;;1.70;;
15287;SDS011;7745;48.708;9.026;2023-02-26T12:13:28;2.00;;;1.67;;
15287;SDS011;7745;48.708;9.026;2023-02-26T12:16:02;2.43;;;1.90;;
15287;SDS011;7745;48.708;9.026;2023-02-26T12:18:40;1.93;;;1.50;;
15287;SDS011;7745;48.708;9.026;2023-02-26T12:21:46;3.57;;;2.07;;
15287;SDS011;7745;48.708;9.026;2023-02-26T12:24:25;2.60;;;1.60;;
15287;SDS011;7745;48.708;9.026;2023-02-26T12:27:05;1.50;;;1.40;;
15287;SDS011;7745;48.708;9.026;2023-02-26T12:29:44;2.20;;;1.80;;
15287;SDS011;7745;48.708;9.026;2023-02-26T12:32:39;2.53;;;1.70;;
15287;SDS011;7745;48.708;9.026;2023-02-26T12:35:21;1.87;;;1.50;;
15287;SDS011;7745;48.708;9.026;2023-02-26T12:38:17;1.60;;;1.47;;
15287;SDS011;7745;48.708;9.026;2023-02-26T12:40:54;2.53;;;1.30;;
15287;SDS011;7745;48.708;9.026;2023-02-26T12:43:41;3.50;;;1.73;;
15287;SDS011;7745;48.708;9.026;2023-02-26T12:46:15;2.07;;;1.73;;
15287;SDS011;7745;48.708;9.026;2023-02-26T12:48:55;1.80;;;1.70;;
15287;SDS011;7745;48.708;9.026;2023-02-26T12:51:42;2.73;;;1.50;;
15287;SDS011;7745;48.708;9.026;2023-02-26T12:54:28;1.97;;;1.87;;
15287;SDS011;7745;48.708;9.026;2023-02-26T12:57:08;1.50;;;1.30;;
15287;SDS011;7745;48.708;9.026;2023-02-26T12:59:59;2.63;;;1.90;;
15287;SDS011;7745;48.708;9.026;2023-02-26T13:02:50;1.77;;;1.40;;
15287;SDS011;7745;48.708;9.026;2023-02-26T13:05:53;2.20;;;1.70;;
15287;SDS011;7745;48.708;9.026;2023-02-26T13:08:31;1.47;;;1.33;;
15287;SDS011;7745;48.708;9.026;2023-02-26T13:11:10;1.07;;;0.93;;
15287;SDS011;7745;48.708;9.026;2023-02-26T13:13:55;1.57;;;1.47;;
15287;SDS011;7745;48.708;9.026;2023-02-26T13:16:34;1.60;;;1.50;;
15287;SDS011;7745;48.708;9.026;2023-02-26T13:19:12;1.80;;;1.27;;
15287;SDS011;7745;48.708;9.026;2023-02-26T13:21:53;2.93;;;2.20;;
15287;SDS011;7745;48.708;9.026;2023-02-26T13:24:23;1.43;;;1.30;;
15287;SDS011;7745;48.708;9.026;2023-02-26T13:26:57;2.80;;;1.60;;
15287;SDS011;7745;48.708;9.026;2023-02-26T13:29:27;2.13;;;1.47;;
15287;SDS011;7745;48.708;9.026;2023-02-26T13:31:58;1.70;;;1.50;;
15287;SDS011;7745;48.708;9.026;2023-02-26T13:34:30;1.90;;;1.50;;
15287;SDS011;7745;48.708;9.026;2023-02-26T13:37:03;1.70;;;1.60;;
15287;SDS011;7745;48.708;9.026;2023-02-26T13:39:41;2.00;;;1.33;;
15287;SDS011;7745;48.708;9.026;2023-02-26T13:42:18;2.00;;;1.57;;
15287;SDS011;7745;48.708;9.026;2023-02-26T13:44:56;1.30;;;1.20;;
15287;SDS011;7745;48.708;9.026;2023-02-26T13:47:45;2.33;;;1.50;;
15287;SDS011;7745;48.708;9.026;2023-02-26T13:50:36;2.53;;;1.23;;
15287;SDS011;7745;48.708;9.026;2023-02-26T13:53:34;1.97;;;1.10;;
15287;SDS011;7745;48.708;9.026;2023-02-26T13:56:12;1.30;;;1.20;;
15287;SDS011;7745;48.708;9.026;2023-02-26T13:58:42;1.00;;;0.90;;
15287;SDS011;7745;48.708;9.026;2023-02-26T14:01:13;1.73;;;1.33;;
15287;SDS011;7745;48.708;9.026;2023-02-26T14:03:44;2.37;;;1.00;;
15287;SDS011;7745;48.708;9.026;2023-02-26T14:06:34;3.07;;;1.43;;
15287;SDS011;7745;48.708;9.026;2023-02-26T14:12:25;2.20;;;1.00;;
15287;SDS011;7745;48.708;9.026;2023-02-26T14:18:01;1.87;;;1.50;;
15287;SDS011;7745;48.708;9.026;2023-02-26T14:20:31;1.80;;;1.37;;
15287;SDS011;7745;48.708;9.026;2023-02-26T14:23:10;1.30;;;1.20;;
15287;SDS011;7745;48.708;9.026;2023-02-26T14:25:50;2.60;;;1.80;;
15287;SDS011;7745;48.708;9.026;2023-02-26T14:28:40;1.80;;;1.50;;
15287;SDS011;7745;48.708;9.026;2023-02-26T14:31:21;1.30;;;1.20;;
15287;SDS011;7745;48.708;9.026;2023-02-26T14:34:05;1.20;;;0.90;;
15287;SDS011;7745;48.708;9.026;2023-02-26T14:36:40;1.00;;;0.90;;
15287;SDS011;7745;48.708;9.026;2023-02-26T14:39:26;1.40;;;0.83;;
15287;SDS011;7745;48.708;9.026;2023-02-26T14:41:57;2.03;;;1.30;;
15287;SDS011;7745;48.708;9.026;2023-02-26T14:44:27;1.63;;;1.17;;
15287;SDS011;7745;48.708;9.026;2023-02-26T14:46:56;1.10;;;0.97;;
15287;SDS011;7745;48.708;9.026;2023-02-26T14:49:26;1.43;;;1.30;;
15287;SDS011;7745;48.708;9.026;2023-02-26T14:52:03;0.80;;;0.80;;
15287;SDS011;7745;48.708;9.026;2023-02-26T14:54:47;3.30;;;0.80;;
15287;SDS011;7745;48.708;9.026;2023-02-26T14:57:24;1.50;;;1.10;;
15287;SDS011;7745;48.708;9.026;2023-02-26T15:00:03;1.97;;;1.60;;
15287;SDS011;7745;48.708;9.026;2023-02-26T15:02:48;1.33;;;1.20;;
15287;SDS011;7745;48.708;9.026;2023-02-26T15:05:30;1.60;;;1.43;;
15287;SDS011;7745;48.708;9.026;2023-02-26T15:08:19;3.30;;;1.30;;
15287;SDS011;7745;48.708;9.026;2023-02-26T15:10:57;1.90;;;1.27;;
15287;SDS011;7745;48.708;9.026;2023-02-26T15:13:43;1.90;;;1.23;;
15287;SDS011;7745;48.708;9.026;2023-02-26T15:16:23;2.63;;;1.30;;
15287;SDS011;7745;48.708;9.026;2023-02-26T15:19:03;1.03;;;0.90;;
15287;SDS011;7745;48.708;9.026;2023-02-26T15:21:46;1.30;;;1.00;;
15287;SDS011;7745;48.708;9.026;2023-02-26T15:24:24;2.30;;;0.97;;
15287;SDS011;7745;48.708;9.026;2023-02-26T15:26:55;1.30;;;1.00;;
15287;SDS011;7745;48.708;9.026;2023-02-26T15:29:26;1.93;;;0.90;;
15287;SDS011;7745;48.708;9.026;2023-02-26T15:31:56;1.93;;;0.90;;
15287;SDS011;7745;48.708;9.026;2023-02-26T15:34:27;0.70;;;0.70;;
15287;SDS011;7745;48.708;9.026;2023-02-26T15:36:58;1.37;;;1.10;;
15287;SDS011;7745;48.708;9.026;2023-02-26T15:39:26;1.30;;;0.93;;